Time;durP1;ratioP1;P1;durP2;ratioP2;P2;SDS_P1;SDS_P2;PMS_P1;PMS_P2;Temp;Humidity;BMP_temperature;BMP_pressure;BME280_temperature;BME280_humidity;BME280_pressure;Samples;Min_cycle;Max_cycle;Signal;HPM_P1;HPM_P2
2022/04/25 00:00:14;;;;;;;31.73;16.42;;;4.70;99.90;;;;;;5053687;28;20116;-82
2022/04/25 00:02:40;;;;;;;22.25;13.65;;;4.70;99.90;;;;;;5053771;28;20360;-82
2022/04/25 00:05:06;;;;;;;16.23;10.18;;;4.70;99.90;;;;;;5053659;28;20021;-82
2022/04/25 00:07:32;;;;;;;14.65;9.68;;;4.70;99.90;;;;;;5053525;28;20032;-82
2022/04/25 00:09:57;;;;;;;16.92;10.38;;;4.70;99.90;;;;;;5053619;28;20025;-83
2022/04/25 00:12:23;;;;;;;22.80;13.80;;;4.80;99.90;;;;;;5053522;28;20029;-82
2022/04/25 00:14:49;;;;;;;39.58;23.55;;;4.70;99.90;;;;;;5053316;28;20017;-82
2022/04/25 00:17:14;;;;;;;48.83;26.55;;;4.70;99.90;;;;;;5054787;28;20383;-82
2022/04/25 00:19:40;;;;;;;59.17;31.05;;;4.70;99.90;;;;;;5049340;28;20040;-82
2022/04/25 00:22:06;;;;;;;57.25;30.73;;;4.70;99.90;;;;;;5033438;28;20114;-83
2022/04/25 00:24:31;;;;;;;57.65;29.60;;;4.60;99.90;;;;;;5033435;28;20116;-83
2022/04/25 00:26:57;;;;;;;55.05;30.10;;;4.60;99.90;;;;;;5033646;28;20014;-82
2022/04/25 00:29:23;;;;;;;56.03;33.17;;;4.60;99.90;;;;;;5033348;28;20026;-82
2022/04/25 00:31:48;;;;;;;38.95;23.77;;;4.60;99.90;;;;;;5034470;28;20025;-82
2022/04/25 00:34:14;;;;;;;30.88;15.52;;;4.60;99.90;;;;;;5033192;28;20045;-83
2022/04/25 00:36:39;;;;;;;21.85;14.75;;;4.60;99.90;;;;;;5033172;28;20566;-83
2022/04/25 00:39:05;;;;;;;31.17;19.58;;;4.60;99.90;;;;;;5033141;28;20013;-83
2022/04/25 00:41:30;;;;;;;36.88;22.55;;;4.60;99.90;;;;;;5034271;28;20403;-83
2022/04/25 00:43:57;;;;;;;29.88;20.00;;;4.50;99.90;;;;;;5033036;28;20033;-83
2022/04/25 00:46:25;;;;;;;28.40;16.80;;;4.50;99.90;;;;;;5032982;28;20036;-83
2022/04/25 00:48:52;;;;;;;28.13;17.90;;;4.50;99.90;;;;;;5034219;28;20028;-82
2022/04/25 00:51:18;;;;;;;29.60;18.25;;;4.50;99.90;;;;;;5032969;28;20601;-82
2022/04/25 00:53:46;;;;;;;29.75;18.83;;;4.50;99.90;;;;;;5032865;28;20025;-81
2022/04/25 00:56:15;;;;;;;43.63;23.38;;;4.40;99.90;;;;;;5032600;28;20029;-82
2022/04/25 00:58:44;;;;;;;43.80;24.73;;;4.40;99.90;;;;;;5032673;28;20033;-83
2022/04/25 01:01:11;;;;;;;50.28;28.83;;;4.20;99.90;;;;;;5032619;28;20045;-81
2022/04/25 01:03:36;;;;;;;51.92;31.67;;;4.20;99.90;;;;;;5032585;28;20383;-82
2022/04/25 01:06:02;;;;;;;37.92;21.65;;;4.20;99.90;;;;;;5033273;28;20100;-83
2022/04/25 01:08:27;;;;;;;27.58;17.55;;;4.20;99.90;;;;;;5032701;28;20372;-83
2022/04/25 01:10:53;;;;;;;27.40;16.67;;;4.10;99.90;;;;;;5032456;28;20029;-82
2022/04/25 01:13:19;;;;;;;31.02;18.05;;;4.00;99.90;;;;;;5033753;28;20029;-82
2022/04/25 01:15:44;;;;;;;28.52;17.40;;;4.00;99.90;;;;;;5032171;28;20053;-83
2022/04/25 01:18:10;;;;;;;29.77;16.70;;;4.00;99.90;;;;;;5032520;28;20108;-83
2022/04/25 01:20:36;;;;;;;35.10;18.52;;;4.00;99.90;;;;;;5033633;28;20036;-82
2022/04/25 01:28:33;;;;;;;69.70;40.22;;;3.90;99.90;;;;;;5033672;28;20116;-82
2022/04/25 01:30:59;;;;;;;55.08;15.70;;;3.90;99.90;;;;;;5032147;28;20045;-82
2022/04/25 01:33:24;;;;;;;38.95;15.13;;;3.90;99.90;;;;;;5032180;28;20025;-82
2022/04/25 01:35:50;;;;;;;19.88;12.90;;;3.80;99.90;;;;;;5033448;28;20084;-82
2022/04/25 01:38:15;;;;;;;17.52;12.40;;;3.80;99.90;;;;;;5033383;28;20013;-82
2022/04/25 01:40:41;;;;;;;30.13;15.05;;;3.80;99.90;;;;;;5033415;28;20057;-83
2022/04/25 01:43:06;;;;;;;35.88;21.60;;;3.90;99.90;;;;;;5033332;28;20025;-83
2022/04/25 01:45:32;;;;;;;33.08;19.70;;;3.90;99.90;;;;;;5033314;28;20060;-82
2022/04/25 01:47:57;;;;;;;38.45;19.95;;;3.90;99.90;;;;;;5032003;28;20053;-82
2022/04/25 01:50:23;;;;;;;41.05;22.17;;;3.90;99.90;;;;;;5031955;28;20029;-81
2022/04/25 01:52:48;;;;;;;35.28;21.38;;;4.00;99.90;;;;;;5031965;28;20024;-82
2022/04/25 01:55:14;;;;;;;31.48;18.50;;;3.90;99.90;;;;;;5033090;28;20021;-81
2022/04/25 01:57:39;;;;;;;24.05;16.25;;;3.90;99.90;;;;;;5033165;28;20079;-82
2022/04/25 02:00:06;;;;;;;24.58;15.48;;;3.90;99.90;;;;;;5033021;28;20040;-81
2022/04/25 02:02:31;;;;;;;31.38;16.48;;;3.90;99.90;;;;;;5031898;28;20025;-83
2022/04/25 02:04:57;;;;;;;33.38;19.35;;;3.90;99.90;;;;;;5033016;28;20071;-82
2022/04/25 02:07:23;;;;;;;33.53;19.75;;;3.80;99.90;;;;;;5031786;28;20052;-83
2022/04/25 02:09:49;;;;;;;33.95;20.00;;;3.70;99.90;;;;;;5031880;28;20017;-82
2022/04/25 02:12:15;;;;;;;33.47;18.85;;;3.70;99.90;;;;;;5031844;28;20095;-82
2022/04/25 02:14:42;;;;;;;30.00;17.33;;;3.70;99.90;;;;;;5031536;28;20487;-81
2022/04/25 02:17:08;;;;;;;27.63;16.50;;;3.60;99.90;;;;;;5033299;28;20056;-81
2022/04/25 02:19:38;;;;;;;25.48;15.95;;;3.60;99.90;;;;;;5035724;28;20025;-82
2022/04/25 02:22:04;;;;;;;34.45;21.60;;;3.60;99.90;;;;;;5037230;28;20018;-82
2022/04/25 02:24:30;;;;;;;35.70;21.70;;;3.50;99.90;;;;;;5035811;28;20029;-83
2022/04/25 02:26:55;;;;;;;32.53;20.10;;;3.50;99.90;;;;;;5035608;28;20025;-81
2022/04/25 02:29:22;;;;;;;28.27;19.63;;;3.60;99.90;;;;;;5036954;28;20053;-83
2022/04/25 02:31:48;;;;;;;25.85;16.85;;;3.60;99.90;;;;;;5035603;28;20017;-82
2022/04/25 02:34:13;;;;;;;25.58;17.50;;;3.60;99.90;;;;;;5035516;28;20022;-82
2022/04/25 02:36:39;;;;;;;33.45;19.58;;;3.60;99.90;;;;;;5036747;28;20386;-82
2022/04/25 02:39:05;;;;;;;23.50;17.00;;;3.60;99.90;;;;;;5036686;28;20026;-82
2022/04/25 02:41:31;;;;;;;32.17;21.13;;;3.50;99.90;;;;;;5035285;28;20042;-81
2022/04/25 02:43:56;;;;;;;35.72;21.35;;;3.50;99.90;;;;;;5036591;28;20056;-82
2022/04/25 02:46:22;;;;;;;27.83;18.90;;;3.40;99.90;;;;;;5036504;28;20065;-82
2022/04/25 02:48:48;;;;;;;30.88;19.05;;;3.50;99.90;;;;;;5035186;28;20030;-82
2022/04/25 02:51:15;;;;;;;22.85;17.10;;;3.60;99.90;;;;;;5036410;28;20030;-82
2022/04/25 02:53:41;;;;;;;30.45;19.92;;;3.60;99.90;;;;;;5036572;28;20022;-83
2022/04/25 02:56:07;;;;;;;28.00;19.23;;;3.60;99.90;;;;;;5034972;28;20076;-83
2022/04/25 02:58:34;;;;;;;32.95;20.58;;;3.60;99.90;;;;;;5035424;28;20025;-82
2022/04/25 03:01:04;;;;;;;37.92;20.70;;;3.60;99.90;;;;;;5034911;28;20037;-82
2022/04/25 03:03:31;;;;;;;29.05;18.45;;;3.60;99.90;;;;;;5036364;28;20021;-82
2022/04/25 03:05:57;;;;;;;32.35;21.15;;;3.60;99.90;;;;;;5036272;28;20029;-82
2022/04/25 03:08:23;;;;;;;34.55;20.55;;;3.60;99.90;;;;;;5036136;28;20022;-81
2022/04/25 03:10:54;;;;;;;31.77;19.10;;;3.50;99.90;;;;;;5034849;28;20017;-81
2022/04/25 03:13:21;;;;;;;24.90;17.30;;;3.50;99.90;;;;;;5034707;28;20037;-82
2022/04/25 03:15:47;;;;;;;23.48;17.05;;;3.60;99.90;;;;;;5036177;28;20494;-82
2022/04/25 03:18:15;;;;;;;35.88;23.13;;;3.60;99.90;;;;;;5034620;28;20112;-83
2022/04/25 03:20:48;;;;;;;39.35;23.02;;;3.70;99.90;;;;;;5034580;28;20033;-83
2022/04/25 03:23:14;;;;;;;28.55;20.23;;;3.70;99.90;;;;;;5034477;28;20021;-83
2022/04/25 03:25:40;;;;;;;24.88;16.90;;;3.70;99.90;;;;;;5034526;28;20076;-82
2022/04/25 03:28:06;;;;;;;26.02;16.15;;;3.80;99.90;;;;;;5035203;28;20017;-83
2022/04/25 03:30:32;;;;;;;29.05;18.77;;;3.90;99.90;;;;;;5034416;28;20024;-83
2022/04/25 03:32:58;;;;;;;34.83;20.15;;;3.90;99.90;;;;;;5034407;28;20040;-83
2022/04/25 03:35:24;;;;;;;45.85;24.58;;;3.90;99.90;;;;;;5035638;28;20498;-83
2022/04/25 03:37:51;;;;;;;46.95;23.27;;;3.90;99.90;;;;;;5034370;28;20018;-82
2022/04/25 03:40:17;;;;;;;55.60;32.92;;;4.00;99.90;;;;;;5034113;28;20029;-83
2022/04/25 03:42:44;;;;;;;55.03;27.52;;;4.00;99.90;;;;;;5034219;28;20094;-81
2022/04/25 03:45:11;;;;;;;83.43;35.70;;;4.10;99.90;;;;;;5034221;28;20446;-83
2022/04/25 03:47:38;;;;;;;62.22;26.52;;;4.10;99.90;;;;;;5034859;28;20029;-81
2022/04/25 03:50:08;;;;;;;69.95;28.55;;;4.10;99.90;;;;;;5034070;28;20087;-81
2022/04/25 03:52:38;;;;;;;67.57;30.08;;;4.10;99.90;;;;;;5033877;28;20479;-82
2022/04/25 03:57:53;;;;;;;147.95;53.20;;;4.10;99.90;;;;;;5035613;28;20049;-82
2022/04/25 04:00:18;;;;;;;114.65;43.80;;;4.20;99.90;;;;;;5033746;28;20041;-81
2022/04/25 04:02:44;;;;;;;166.63;58.90;;;4.20;99.90;;;;;;5033862;28;20021;-81
2022/04/25 04:05:10;;;;;;;169.32;64.80;;;4.20;99.90;;;;;;5033857;28;20113;-82
2022/04/25 04:07:36;;;;;;;114.75;50.13;;;4.30;99.90;;;;;;5033747;28;20018;-82
2022/04/25 04:10:02;;;;;;;79.25;39.58;;;4.30;99.90;;;;;;5033693;28;20029;-82
2022/04/25 04:12:31;;;;;;;40.35;25.90;;;4.40;99.90;;;;;;5034908;28;20468;-82
2022/04/25 04:14:58;;;;;;;37.90;25.05;;;4.40;99.90;;;;;;5033470;28;20087;-81
2022/04/25 04:17:24;;;;;;;36.35;23.73;;;4.50;99.90;;;;;;5034977;28;20050;-81
2022/04/25 04:19:52;;;;;;;67.70;32.22;;;4.60;99.90;;;;;;5033376;28;20036;-82
2022/04/25 04:22:17;;;;;;;144.60;56.35;;;4.60;99.90;;;;;;5033510;28;20021;-83
2022/04/25 04:24:43;;;;;;;149.43;55.00;;;4.70;99.90;;;;;;5033446;28;20032;-83
2022/04/25 04:27:09;;;;;;;179.55;66.22;;;4.70;99.90;;;;;;5034716;28;20032;-83
2022/04/25 04:29:35;;;;;;;214.32;73.55;;;4.70;99.90;;;;;;5033439;28;20021;-83
2022/04/25 04:32:05;;;;;;;245.43;82.00;;;4.80;99.90;;;;;;5034511;28;20079;-82
2022/04/25 04:34:32;;;;;;;258.67;89.43;;;4.80;99.90;;;;;;5034693;28;20030;-83
2022/04/25 04:36:59;;;;;;;246.43;88.53;;;4.80;99.90;;;;;;5033324;28;20025;-83
2022/04/25 04:39:24;;;;;;;229.07;81.03;;;4.80;99.90;;;;;;5032957;28;20028;-83
2022/04/25 04:41:50;;;;;;;229.63;79.63;;;4.90;99.90;;;;;;5032410;28;20038;-83
2022/04/25 04:44:16;;;;;;;225.82;82.03;;;5.00;99.90;;;;;;5033006;28;20026;-83
2022/04/25 04:46:41;;;;;;;216.77;81.60;;;5.10;99.90;;;;;;5034280;28;20022;-83
2022/04/25 04:49:07;;;;;;;222.93;78.90;;;5.20;99.90;;;;;;5033098;28;20020;-83
2022/04/25 04:51:32;;;;;;;235.68;87.70;;;5.30;99.90;;;;;;5032942;28;20021;-83
2022/04/25 04:54:02;;;;;;;267.90;100.60;;;5.40;99.90;;;;;;5032928;28;20071;-84
2022/04/25 04:56:29;;;;;;;249.18;92.15;;;5.60;99.90;;;;;;5034188;28;20026;-84
2022/04/25 04:58:54;;;;;;;215.30;86.22;;;5.70;99.90;;;;;;5033994;28;20470;-84
2022/04/25 05:01:20;;;;;;;191.25;79.65;;;5.90;99.90;;;;;;5033934;28;20168;-84
2022/04/25 05:03:45;;;;;;;194.13;80.80;;;6.10;99.90;;;;;;5032863;28;20029;-84
2022/04/25 05:06:12;;;;;;;222.60;90.82;;;6.20;99.90;;;;;;5032754;28;20028;-83
2022/04/25 05:08:38;;;;;;;173.15;74.28;;;6.40;99.90;;;;;;5034070;28;20068;-84
2022/04/25 05:11:05;;;;;;;155.77;64.03;;;6.50;99.90;;;;;;5032680;28;20036;-84
2022/04/25 05:13:31;;;;;;;145.32;62.25;;;6.60;99.90;;;;;;5033855;28;20209;-84
2022/04/25 05:15:57;;;;;;;143.30;61.92;;;6.80;99.90;;;;;;5033840;28;20103;-84
2022/04/25 05:18:24;;;;;;;136.25;58.83;;;6.80;99.90;;;;;;5033653;28;20021;-84
2022/04/25 05:20:50;;;;;;;140.65;62.38;;;7.00;99.90;;;;;;5033542;28;20483;-84
2022/04/25 05:23:16;;;;;;;149.25;69.47;;;7.10;99.90;;;;;;5032405;28;20017;-84
2022/04/25 05:25:42;;;;;;;218.82;106.32;;;7.20;99.90;;;;;;5033473;28;20032;-83
2022/04/25 05:28:07;;;;;;;174.13;78.57;;;7.30;99.90;;;;;;5033376;28;20099;-83
2022/04/25 05:30:33;;;;;;;156.52;65.97;;;7.50;99.90;;;;;;5033455;28;20026;-86
2022/04/25 05:33:02;;;;;;;156.38;62.85;;;7.60;99.90;;;;;;5033117;28;20022;-86
2022/04/25 05:35:33;;;;;;;162.05;66.57;;;7.70;99.90;;;;;;5033289;28;20115;-85
2022/04/25 05:37:59;;;;;;;125.75;57.25;;;7.90;99.90;;;;;;5033047;28;20056;-82
2022/04/25 05:40:26;;;;;;;65.93;35.30;;;8.10;99.90;;;;;;5034070;28;20491;-83
2022/04/25 05:42:53;;;;;;;55.20;30.00;;;8.40;99.90;;;;;;5041287;28;20141;-85
2022/04/25 05:45:21;;;;;;;47.38;26.48;;;8.60;99.90;;;;;;5052815;28;20090;-83
2022/04/25 05:47:47;;;;;;;43.25;25.25;;;8.80;99.90;;;;;;5053166;28;20017;-85
2022/04/25 05:53:00;;;;;;;37.08;23.20;;;9.00;99.90;;;;;;5053257;28;20437;-82
2022/04/25 05:55:28;;;;;;;42.03;25.23;;;9.10;99.90;;;;;;5053083;28;20029;-81
2022/04/25 05:57:54;;;;;;;34.05;20.70;;;9.10;99.90;;;;;;5053677;28;20132;-84
2022/04/25 06:00:20;;;;;;;43.40;24.33;;;9.30;99.90;;;;;;5053326;28;20433;-80
2022/04/25 06:02:49;;;;;;;35.45;23.45;;;9.30;99.90;;;;;;5053243;28;20067;-83
2022/04/25 06:05:15;;;;;;;38.83;22.83;;;9.40;99.90;;;;;;5053086;28;20091;-81
2022/04/25 06:07:45;;;;;;;42.47;26.17;;;9.50;99.90;;;;;;5041235;28;20479;-84
2022/04/25 06:10:13;;;;;;;35.20;21.75;;;9.60;99.90;;;;;;5046749;28;20499;-84
2022/04/25 06:12:41;;;;;;;34.05;21.50;;;9.70;99.90;;;;;;5038739;28;20036;-83
2022/04/25 06:15:07;;;;;;;43.03;24.50;;;9.90;99.90;;;;;;5046209;28;20048;-83
2022/04/25 06:17:33;;;;;;;41.47;24.40;;;10.00;99.90;;;;;;5050275;28;20033;-87
2022/04/25 06:19:59;;;;;;;36.25;20.02;;;10.10;99.90;;;;;;5050728;28;20041;-82
2022/04/25 06:22:24;;;;;;;29.67;19.45;;;10.10;99.90;;;;;;5050700;28;20029;-82
2022/04/25 06:24:50;;;;;;;33.35;20.10;;;10.20;99.90;;;;;;5052105;28;20044;-82
2022/04/25 06:27:16;;;;;;;31.58;19.08;;;10.20;99.90;;;;;;5050676;28;20029;-84
2022/04/25 06:29:44;;;;;;;26.33;17.35;;;10.30;99.90;;;;;;5051466;28;20038;-80
2022/04/25 06:32:10;;;;;;;30.05;18.27;;;10.30;99.90;;;;;;5050894;28;20562;-81
2022/04/25 06:34:36;;;;;;;24.90;16.63;;;10.30;99.90;;;;;;5050737;28;20021;-81
2022/04/25 06:37:02;;;;;;;25.38;17.38;;;10.30;99.90;;;;;;5049467;28;20380;-80
2022/04/25 06:39:27;;;;;;;28.00;16.77;;;10.30;99.90;;;;;;5049303;28;20024;-81
2022/04/25 06:41:53;;;;;;;26.98;15.57;;;10.30;99.90;;;;;;5049234;28;20045;-81
2022/04/25 06:44:18;;;;;;;23.42;16.67;;;10.30;99.90;;;;;;5050565;28;20021;-80
2022/04/25 06:46:44;;;;;;;27.92;16.75;;;10.30;99.90;;;;;;5050035;28;20036;-80
2022/04/25 06:49:25;;;;;;;24.55;16.08;;;10.30;99.90;;;;;;5051194;28;20040;-80
2022/04/25 06:51:52;;;;;;;27.85;17.13;;;10.30;99.90;;;;;;5051090;28;20474;-81
2022/04/25 06:54:19;;;;;;;27.45;16.48;;;10.40;99.90;;;;;;5052303;28;20025;-81
2022/04/25 06:56:45;;;;;;;25.88;16.80;;;10.40;99.90;;;;;;5051101;28;20493;-81
2022/04/25 06:59:10;;;;;;;26.65;15.85;;;10.50;99.90;;;;;;5051048;28;20017;-80
2022/04/25 07:01:36;;;;;;;25.10;16.75;;;10.50;99.90;;;;;;5052345;28;20086;-82
2022/04/25 07:04:06;;;;;;;28.60;18.05;;;10.50;99.90;;;;;;5052765;28;20028;-81
2022/04/25 07:06:33;;;;;;;27.92;16.77;;;10.50;99.90;;;;;;5054863;28;20387;-83
2022/04/25 07:08:58;;;;;;;25.45;15.13;;;10.60;99.90;;;;;;5054710;28;20021;-83
2022/04/25 07:11:24;;;;;;;22.42;15.88;;;10.60;99.90;;;;;;5056191;28;20025;-83
2022/04/25 07:13:49;;;;;;;25.92;17.27;;;10.70;99.90;;;;;;5055857;28;20090;-83
2022/04/25 07:16:15;;;;;;;28.70;16.35;;;10.80;99.90;;;;;;5054309;28;20049;-83
2022/04/25 07:18:41;;;;;;;20.90;14.80;;;10.90;99.90;;;;;;5054846;28;20025;-83
2022/04/25 07:29:22;;;;;;;21.65;14.48;;;11.40;99.90;;;;;;5055431;28;20096;-83
2022/04/25 07:31:49;;;;;;;22.45;14.40;;;11.60;99.90;;;;;;5054184;28;20029;-82
2022/04/25 07:34:14;;;;;;;24.02;13.52;;;11.70;99.90;;;;;;5055826;28;20028;-82
2022/04/25 07:36:40;;;;;;;27.27;13.57;;;11.70;99.90;;;;;;5054132;28;20363;-83
2022/04/25 07:39:06;;;;;;;24.73;15.20;;;11.80;99.90;;;;;;5054445;28;20509;-84
2022/04/25 07:41:31;;;;;;;26.67;14.50;;;11.90;99.90;;;;;;5053316;28;20029;-84
2022/04/25 07:43:58;;;;;;;21.50;13.82;;;12.00;99.90;;;;;;5054333;28;20025;-84
2022/04/25 07:46:25;;;;;;;19.23;11.40;;;12.00;99.90;;;;;;5054180;28;20025;-84
2022/04/25 07:48:52;;;;;;;18.02;13.15;;;12.10;99.90;;;;;;5054191;28;20060;-85
2022/04/25 07:51:18;;;;;;;19.17;11.68;;;12.10;99.90;;;;;;5055413;28;20467;-82
2022/04/25 07:53:43;;;;;;;17.92;11.07;;;12.20;99.90;;;;;;5054028;28;20119;-81
2022/04/25 07:56:09;;;;;;;18.45;11.38;;;12.30;99.90;;;;;;5053984;28;20059;-84
2022/04/25 07:58:35;;;;;;;22.98;12.88;;;12.30;99.90;;;;;;5053969;28;20421;-82
2022/04/25 08:01:02;;;;;;;19.33;11.98;;;12.40;99.90;;;;;;5055075;28;20041;-82
2022/04/25 08:03:28;;;;;;;19.73;11.88;;;12.50;99.90;;;;;;5054005;28;20032;-82
2022/04/25 08:05:54;;;;;;;22.70;12.25;;;12.50;99.90;;;;;;5055005;28;20017;-83
2022/04/25 08:08:20;;;;;;;20.02;11.68;;;12.50;99.90;;;;;;5055047;28;20036;-84
2022/04/25 08:10:46;;;;;;;20.40;11.75;;;12.60;99.90;;;;;;5053773;28;20021;-83
2022/04/25 08:18:39;;;;;;;22.40;15.65;;;12.60;99.90;;;;;;5055131;28;20383;-81
2022/04/25 08:21:05;;;;;;;23.83;15.50;;;12.80;99.90;;;;;;5053409;28;20029;-83
2022/04/25 08:23:31;;;;;;;24.92;14.60;;;13.10;99.90;;;;;;5054639;28;20548;-81
2022/04/25 08:25:56;;;;;;;9.30;6.22;;;13.40;99.90;;;;;;5054540;28;20021;-81
2022/04/25 08:28:23;;;;;;;9.77;5.80;;;13.70;93.50;;;;;;5054446;28;20470;-83
2022/04/25 08:30:48;;;;;;;8.88;6.00;;;13.90;82.30;;;;;;5052968;28;20052;-81
2022/04/25 08:33:14;;;;;;;11.07;7.78;;;14.20;83.00;;;;;;5053532;28;20500;-83
2022/04/25 08:35:40;;;;;;;9.15;6.13;;;14.50;84.20;;;;;;5054484;28;20029;-83
2022/04/25 08:38:06;;;;;;;9.93;5.55;;;14.60;82.20;;;;;;5053112;28;20477;-83
2022/04/25 08:40:32;;;;;;;9.02;6.10;;;14.80;73.00;;;;;;5053387;28;20040;-82
2022/04/25 08:42:58;;;;;;;10.15;5.90;;;15.00;73.00;;;;;;5053584;28;20021;-85
2022/04/25 08:45:24;;;;;;;7.15;4.63;;;15.20;73.10;;;;;;5054444;28;20035;-82
2022/04/25 08:47:55;;;;;;;8.57;5.07;;;15.10;66.90;;;;;;5053132;28;20029;-81
2022/04/25 08:50:22;;;;;;;7.07;5.43;;;15.30;69.90;;;;;;5054455;28;20386;-83
2022/04/25 08:52:48;;;;;;;6.22;4.40;;;15.50;69.10;;;;;;5054237;28;20021;-81
2022/04/25 08:55:15;;;;;;;6.75;4.32;;;15.60;66.70;;;;;;5052855;28;20032;-81
2022/04/25 08:57:45;;;;;;;9.93;4.53;;;15.80;65.80;;;;;;5054084;28;20049;-81
2022/04/25 09:00:12;;;;;;;6.55;5.40;;;15.80;65.30;;;;;;5052749;28;20375;-81
2022/04/25 09:02:39;;;;;;;7.85;4.38;;;15.80;67.90;;;;;;5053773;28;20394;-84
2022/04/25 09:05:06;;;;;;;6.13;3.90;;;15.70;64.50;;;;;;5050517;28;20052;-88
2022/04/25 09:07:35;;;;;;;8.57;5.63;;;15.50;64.80;;;;;;5052585;28;20079;-89
2022/04/25 09:10:01;;;;;;;9.13;6.13;;;15.20;69.00;;;;;;5052450;28;20051;-92
2022/04/25 09:12:27;;;;;;;10.48;5.15;;;15.20;70.00;;;;;;5051404;28;20382;-84
2022/04/25 09:14:56;;;;;;;7.88;5.03;;;14.90;70.70;;;;;;5053166;28;20021;-84
2022/04/25 09:17:22;;;;;;;7.50;5.40;;;14.80;71.60;;;;;;5052523;28;20514;-82
2022/04/25 09:19:48;;;;;;;7.13;4.15;;;14.80;73.70;;;;;;5053114;28;20036;-88
2022/04/25 09:22:29;;;;;;;7.75;4.82;;;14.70;70.50;;;;;;5049622;28;20061;-86
2022/04/25 09:25:06;;;;;;;7.07;5.38;;;14.80;71.30;;;;;;5052499;28;20384;-85
2022/04/25 09:27:32;;;;;;;7.75;4.85;;;14.90;72.50;;;;;;5052136;28;20021;-85
2022/04/25 09:30:14;;;;;;;5.07;4.05;;;15.00;73.10;;;;;;5067543;28;20021;-85
2022/04/25 09:32:40;;;;;;;5.50;3.58;;;15.30;75.30;;;;;;5051121;28;20051;-83
2022/04/25 09:35:40;;;;;;;6.05;4.82;;;15.80;72.30;;;;;;5050801;28;20060;-86
2022/04/25 09:38:08;;;;;;;6.82;4.97;;;16.10;69.80;;;;;;5052044;28;20017;-84
2022/04/25 09:40:36;;;;;;;7.55;4.95;;;15.90;69.70;;;;;;5051670;28;20067;-86
2022/04/25 09:43:07;;;;;;;6.38;4.45;;;15.60;69.30;;;;;;5049532;28;20462;-84
2022/04/25 09:45:34;;;;;;;8.18;5.20;;;15.40;68.80;;;;;;5050856;28;20078;-83
2022/04/25 09:48:00;;;;;;;6.60;4.60;;;15.30;70.40;;;;;;5050840;28;20480;-83
2022/04/25 09:50:28;;;;;;;7.95;5.47;;;15.50;71.10;;;;;;5050755;28;20112;-83
2022/04/25 09:53:00;;;;;;;6.72;4.90;;;15.70;72.20;;;;;;5050859;28;20017;-86
2022/04/25 09:55:28;;;;;;;5.25;4.35;;;15.60;68.40;;;;;;5051664;28;20024;-83
2022/04/25 09:57:54;;;;;;;8.27;5.30;;;15.50;70.20;;;;;;5052931;28;20078;-86
2022/04/25 10:00:38;;;;;;;6.25;3.90;;;15.30;70.00;;;;;;5052752;28;20441;-87
2022/04/25 10:03:05;;;;;;;5.63;4.15;;;15.10;70.20;;;;;;5052841;28;20028;-86
2022/04/25 10:05:37;;;;;;;6.60;4.28;;;15.00;74.40;;;;;;5051420;28;20040;-84
2022/04/25 10:08:05;;;;;;;5.37;3.83;;;15.00;74.30;;;;;;5051917;28;20025;-86
2022/04/25 10:10:31;;;;;;;4.72;3.60;;;14.90;71.10;;;;;;5051456;28;20431;-83
2022/04/25 10:12:58;;;;;;;6.20;4.10;;;14.90;72.60;;;;;;5052709;28;20479;-85
2022/04/25 10:15:23;;;;;;;4.90;3.95;;;14.90;72.60;;;;;;5052319;28;20040;-86
2022/04/25 10:17:52;;;;;;;6.85;4.50;;;14.80;74.00;;;;;;5052793;28;20036;-85
2022/04/25 10:20:18;;;;;;;5.68;4.07;;;14.70;74.90;;;;;;5051276;28;20036;-85
2022/04/25 10:22:43;;;;;;;7.55;4.95;;;14.50;76.00;;;;;;5051291;28;20022;-86
2022/04/25 10:25:10;;;;;;;5.40;3.63;;;14.50;80.00;;;;;;5052596;28;20032;-85
2022/04/25 10:27:41;;;;;;;3.72;3.33;;;14.40;79.20;;;;;;5052386;28;20021;-83
2022/04/25 10:30:15;;;;;;;6.07;3.97;;;14.20;77.20;;;;;;5052533;28;20027;-83
2022/04/25 10:32:41;;;;;;;4.53;4.03;;;13.90;81.80;;;;;;5052685;28;20462;-83
2022/04/25 10:35:16;;;;;;;8.57;4.82;;;13.70;88.00;;;;;;5052741;28;20116;-85
2022/04/25 10:37:44;;;;;;;7.63;5.47;;;13.40;99.80;;;;;;5051572;28;20025;-85
2022/04/25 10:40:17;;;;;;;7.85;6.15;;;13.20;99.90;;;;;;5056118;28;20037;-85
2022/04/25 10:46:01;;;;;;;6.15;5.53;;;12.80;99.90;;;;;;5056972;28;20083;-85
2022/04/25 10:48:28;;;;;;;7.15;5.38;;;12.70;99.90;;;;;;5055823;28;20043;-84
2022/04/25 10:51:16;;;;;;;10.07;6.60;;;12.60;99.90;;;;;;5055364;28;20025;-83
2022/04/25 10:54:00;;;;;;;9.73;7.53;;;12.50;99.90;;;;;;5056353;28;20032;-83
2022/04/25 10:56:30;;;;;;;15.02;8.43;;;12.40;99.90;;;;;;5055161;28;20029;-84
2022/04/25 10:59:24;;;;;;;12.82;9.30;;;12.40;99.90;;;;;;5056478;28;20025;-85
2022/04/25 11:01:51;;;;;;;23.30;13.27;;;12.40;99.90;;;;;;5054876;28;20432;-85
2022/04/25 11:04:18;;;;;;;21.67;13.38;;;12.30;99.90;;;;;;5054848;28;20055;-85
2022/04/25 11:06:44;;;;;;;16.38;10.77;;;12.30;99.90;;;;;;5056209;28;20040;-83
2022/04/25 11:09:10;;;;;;;9.00;6.35;;;12.20;99.90;;;;;;5056149;28;20021;-85
2022/04/25 11:11:52;;;;;;;5.70;4.63;;;12.00;99.90;;;;;;5055905;28;20029;-85
2022/04/25 11:14:18;;;;;;;7.65;4.95;;;11.80;99.90;;;;;;5056301;28;20040;-82
2022/04/25 11:17:08;;;;;;;6.30;3.78;;;11.70;99.90;;;;;;5055681;28;20053;-82
2022/04/25 11:19:46;;;;;;;7.05;3.70;;;11.50;99.90;;;;;;5054453;28;20020;-83
2022/04/25 11:22:48;;;;;;;6.47;4.38;;;11.30;99.90;;;;;;5054702;28;20034;-82
2022/04/25 11:25:23;;;;;;;6.25;4.30;;;11.40;99.90;;;;;;5054627;28;20032;-82
2022/04/25 11:28:12;;;;;;;6.93;4.60;;;11.40;99.90;;;;;;5050298;28;20087;-81
2022/04/25 11:30:39;;;;;;;27.27;13.63;;;11.30;99.90;;;;;;5033730;28;20026;-83
2022/04/25 11:33:12;;;;;;;37.10;20.65;;;11.30;99.90;;;;;;5033708;28;20033;-83
2022/04/25 11:35:39;;;;;;;38.80;18.60;;;11.20;99.90;;;;;;5034629;28;20021;-83
2022/04/25 11:38:06;;;;;;;9.55;6.72;;;11.00;99.90;;;;;;5034251;28;20034;-81
2022/04/25 11:40:32;;;;;;;15.93;8.00;;;10.80;99.90;;;;;;5033365;28;20060;-81
2022/04/25 11:42:59;;;;;;;12.95;8.23;;;10.70;99.90;;;;;;5052771;28;20479;-80
2022/04/25 11:45:27;;;;;;;11.85;8.02;;;10.50;99.90;;;;;;5054642;28;20037;-81
2022/04/25 11:47:53;;;;;;;14.52;8.20;;;10.50;99.90;;;;;;5054220;28;20037;-81
2022/04/25 11:50:20;;;;;;;9.98;6.82;;;10.40;99.90;;;;;;5053537;28;20461;-81
2022/04/25 11:52:51;;;;;;;12.20;7.60;;;10.50;99.90;;;;;;5053491;28;20037;-82
2022/04/25 11:55:19;;;;;;;17.45;9.57;;;10.50;99.90;;;;;;5053691;28;20151;-82
2022/04/25 11:57:45;;;;;;;28.15;17.27;;;10.50;99.90;;;;;;5053424;28;20466;-83
2022/04/25 12:00:19;;;;;;;49.28;26.95;;;10.60;99.90;;;;;;5052147;28;20033;-82
2022/04/25 12:02:46;;;;;;;34.03;20.52;;;10.70;99.90;;;;;;5052631;28;20379;-82
2022/04/25 12:05:12;;;;;;;13.43;9.18;;;10.90;99.90;;;;;;5053541;28;20495;-81
2022/04/25 12:15:34;;;;;;;11.05;7.95;;;11.10;99.90;;;;;;5052594;28;20033;-80
2022/04/25 12:15:57;;;;;;;13.75;7.10;;;11.60;99.90;;;;;;5053792;28;20460;-83
2022/04/25 12:18:27;;;;;;;12.10;7.47;;;11.60;99.90;;;;;;5053710;28;20033;-81
2022/04/25 12:21:02;;;;;;;10.07;8.27;;;11.60;99.90;;;;;;5052287;28;20380;-83
2022/04/25 12:23:43;;;;;;;11.85;9.68;;;11.70;99.90;;;;;;5052616;28;20033;-82
2022/04/25 12:26:23;;;;;;;13.23;10.07;;;11.80;99.90;;;;;;5053624;28;20112;-83
2022/04/25 12:29:03;;;;;;;14.55;11.25;;;11.80;99.90;;;;;;5053079;28;20033;-84
2022/04/25 12:31:37;;;;;;;16.42;11.02;;;11.80;99.90;;;;;;5052304;28;20056;-81
2022/04/25 12:34:08;;;;;;;13.00;10.95;;;11.90;99.90;;;;;;5050233;28;20037;-81
2022/04/25 12:36:34;;;;;;;18.73;11.93;;;11.90;99.90;;;;;;5051510;28;20025;-82
2022/04/25 12:39:00;;;;;;;13.80;10.43;;;12.00;99.90;;;;;;5052465;28;20045;-83
2022/04/25 12:41:32;;;;;;;10.93;7.18;;;12.00;99.90;;;;;;5053133;28;20490;-83
2022/04/25 12:44:10;;;;;;;9.23;7.38;;;11.90;99.90;;;;;;5052369;28;20033;-83
2022/04/25 12:46:40;;;;;;;7.55;6.25;;;12.00;99.90;;;;;;5052849;28;20029;-81
2022/04/25 12:49:17;;;;;;;9.40;6.47;;;11.90;99.90;;;;;;5052932;28;20175;-82
2022/04/25 12:51:55;;;;;;;10.25;7.10;;;11.90;99.90;;;;;;5052936;28;20025;-82
2022/04/25 12:54:40;;;;;;;7.68;6.75;;;11.80;99.90;;;;;;5051083;28;20083;-83
2022/04/25 12:57:16;;;;;;;8.05;7.25;;;11.90;99.90;;;;;;5052198;28;20079;-83
2022/04/25 12:59:51;;;;;;;12.10;7.80;;;11.80;99.90;;;;;;5052884;28;20474;-81
2022/04/25 13:02:39;;;;;;;7.47;6.72;;;11.90;99.90;;;;;;5038083;28;20041;-79
2022/04/25 13:05:09;;;;;;;8.52;7.57;;;11.90;99.90;;;;;;5031390;28;20033;-80
2022/04/25 13:07:40;;;;;;;8.00;5.78;;;11.90;99.90;;;;;;5031654;28;20025;-80
2022/04/25 13:10:08;;;;;;;7.00;5.63;;;11.80;99.90;;;;;;5031322;28;20057;-79
2022/04/25 13:12:39;;;;;;;9.25;6.63;;;12.00;99.90;;;;;;5032275;28;20120;-79